sensor_id;sensor_type;location;lat;lon;timestamp;P1;durP1;ratioP1;P2;durP2;ratioP2
18875;SDS011;9570;50.854;13.778;2023-02-02T00:01:45;4.87;;;2.00;;
18875;SDS011;9570;50.854;13.778;2023-02-02T00:04:17;6.43;;;2.10;;
18875;SDS011;9570;50.854;13.778;2023-02-02T00:06:45;4.93;;;1.90;;
18875;SDS011;9570;50.854;13.778;2023-02-02T00:09:11;10.87;;;2.70;;
18875;SDS011;9570;50.854;13.778;2023-02-02T00:11:38;7.33;;;2.30;;
18875;SDS011;9570;50.854;13.778;2023-02-02T00:14:04;6.33;;;2.33;;
18875;SDS011;9570;50.854;13.778;2023-02-02T00:18:59;6.63;;;2.33;;
18875;SDS011;9570;50.854;13.778;2023-02-02T00:21:26;9.70;;;2.33;;
18875;SDS011;9570;50.854;13.778;2023-02-02T00:23:52;5.80;;;1.73;;
18875;SDS011;9570;50.854;13.778;2023-02-02T00:26:18;8.40;;;2.60;;
18875;SDS011;9570;50.854;13.778;2023-02-02T00:28:44;11.20;;;2.47;;
18875;SDS011;9570;50.854;13.778;2023-02-02T00:31:09;8.67;;;2.00;;
18875;SDS011;9570;50.854;13.778;2023-02-02T00:33:35;7.20;;;2.10;;
18875;SDS011;9570;50.854;13.778;2023-02-02T00:36:01;6.57;;;2.00;;
18875;SDS011;9570;50.854;13.778;2023-02-02T00:38:27;6.37;;;2.33;;
18875;SDS011;9570;50.854;13.778;2023-02-02T00:40:53;5.47;;;1.90;;
18875;SDS011;9570;50.854;13.778;2023-02-02T00:43:19;5.77;;;2.23;;
18875;SDS011;9570;50.854;13.778;2023-02-02T00:45:44;7.73;;;2.57;;
18875;SDS011;9570;50.854;13.778;2023-02-02T00:48:10;6.80;;;2.33;;
18875;SDS011;9570;50.854;13.778;2023-02-02T00:50:35;8.83;;;2.23;;
18875;SDS011;9570;50.854;13.778;2023-02-02T00:53:01;6.97;;;2.20;;
18875;SDS011;9570;50.854;13.778;2023-02-02T00:55:26;5.83;;;2.30;;
18875;SDS011;9570;50.854;13.778;2023-02-02T00:57:51;2.97;;;1.90;;
18875;SDS011;9570;50.854;13.778;2023-02-02T01:00:18;8.97;;;2.00;;
18875;SDS011;9570;50.854;13.778;2023-02-02T01:02:47;6.40;;;2.50;;
18875;SDS011;9570;50.854;13.778;2023-02-02T01:05:16;7.23;;;2.60;;
18875;SDS011;9570;50.854;13.778;2023-02-02T01:07:41;7.17;;;2.17;;
18875;SDS011;9570;50.854;13.778;2023-02-02T01:10:08;8.83;;;2.43;;
18875;SDS011;9570;50.854;13.778;2023-02-02T01:12:37;6.77;;;2.10;;
18875;SDS011;9570;50.854;13.778;2023-02-02T01:15:03;5.37;;;1.93;;
18875;SDS011;9570;50.854;13.778;2023-02-02T01:17:29;7.53;;;2.03;;
18875;SDS011;9570;50.854;13.778;2023-02-02T01:19:55;7.23;;;2.20;;
18875;SDS011;9570;50.854;13.778;2023-02-02T01:22:20;8.30;;;2.93;;
18875;SDS011;9570;50.854;13.778;2023-02-02T01:24:46;9.27;;;2.23;;
18875;SDS011;9570;50.854;13.778;2023-02-02T01:27:11;10.73;;;2.40;;
18875;SDS011;9570;50.854;13.778;2023-02-02T01:29:37;4.07;;;1.83;;
18875;SDS011;9570;50.854;13.778;2023-02-02T01:32:02;5.13;;;1.90;;
18875;SDS011;9570;50.854;13.778;2023-02-02T01:34:28;10.00;;;2.07;;
18875;SDS011;9570;50.854;13.778;2023-02-02T01:36:53;8.37;;;2.03;;
18875;SDS011;9570;50.854;13.778;2023-02-02T01:39:19;6.60;;;2.10;;
18875;SDS011;9570;50.854;13.778;2023-02-02T01:41:44;11.00;;;2.40;;
18875;SDS011;9570;50.854;13.778;2023-02-02T01:47:13;17.80;;;2.83;;
18875;SDS011;9570;50.854;13.778;2023-02-02T01:49:39;8.63;;;2.30;;
18875;SDS011;9570;50.854;13.778;2023-02-02T01:52:05;8.60;;;2.30;;
18875;SDS011;9570;50.854;13.778;2023-02-02T01:54:34;8.50;;;2.53;;
18875;SDS011;9570;50.854;13.778;2023-02-02T01:57:15;10.53;;;2.97;;
18875;SDS011;9570;50.854;13.778;2023-02-02T01:59:50;7.93;;;2.60;;
18875;SDS011;9570;50.854;13.778;2023-02-02T02:02:18;6.83;;;2.20;;
18875;SDS011;9570;50.854;13.778;2023-02-02T02:04:44;9.63;;;2.40;;
18875;SDS011;9570;50.854;13.778;2023-02-02T02:07:11;6.90;;;2.17;;
18875;SDS011;9570;50.854;13.778;2023-02-02T02:09:36;8.63;;;2.23;;
18875;SDS011;9570;50.854;13.778;2023-02-02T02:12:02;5.40;;;1.90;;
18875;SDS011;9570;50.854;13.778;2023-02-02T02:14:27;5.37;;;2.23;;
18875;SDS011;9570;50.854;13.778;2023-02-02T02:19:47;8.37;;;2.20;;
18875;SDS011;9570;50.854;13.778;2023-02-02T02:22:52;9.30;;;2.47;;
18875;SDS011;9570;50.854;13.778;2023-02-02T02:26:07;8.37;;;2.17;;
18875;SDS011;9570;50.854;13.778;2023-02-02T02:29:20;9.80;;;2.30;;
18875;SDS011;9570;50.854;13.778;2023-02-02T02:32:11;6.90;;;2.17;;
18875;SDS011;9570;50.854;13.778;2023-02-02T02:35:00;7.17;;;2.17;;
18875;SDS011;9570;50.854;13.778;2023-02-02T02:37:49;6.93;;;1.93;;
18875;SDS011;9570;50.854;13.778;2023-02-02T02:43:08;5.83;;;1.57;;
18875;SDS011;9570;50.854;13.778;2023-02-02T02:45:47;8.97;;;1.90;;
18875;SDS011;9570;50.854;13.778;2023-02-02T02:48:13;6.30;;;1.87;;
18875;SDS011;9570;50.854;13.778;2023-02-02T02:50:39;5.43;;;1.50;;
18875;SDS011;9570;50.854;13.778;2023-02-02T02:53:06;8.70;;;2.77;;
18875;SDS011;9570;50.854;13.778;2023-02-02T02:55:45;8.67;;;2.10;;
18875;SDS011;9570;50.854;13.778;2023-02-02T02:58:33;4.67;;;1.87;;
18875;SDS011;9570;50.854;13.778;2023-02-02T03:01:18;9.50;;;2.07;;
18875;SDS011;9570;50.854;13.778;2023-02-02T03:06:35;7.17;;;1.80;;
18875;SDS011;9570;50.854;13.778;2023-02-02T03:09:18;6.77;;;1.87;;
18875;SDS011;9570;50.854;13.778;2023-02-02T03:11:47;9.80;;;2.00;;
18875;SDS011;9570;50.854;13.778;2023-02-02T03:14:13;7.43;;;2.00;;
18875;SDS011;9570;50.854;13.778;2023-02-02T03:16:38;4.87;;;1.90;;
18875;SDS011;9570;50.854;13.778;2023-02-02T03:19:04;6.77;;;1.60;;
18875;SDS011;9570;50.854;13.778;2023-02-02T03:21:30;7.37;;;2.10;;
18875;SDS011;9570;50.854;13.778;2023-02-02T03:23:56;9.57;;;2.00;;
18875;SDS011;9570;50.854;13.778;2023-02-02T03:26:22;7.50;;;2.10;;
18875;SDS011;9570;50.854;13.778;2023-02-02T03:28:49;6.83;;;2.07;;
18875;SDS011;9570;50.854;13.778;2023-02-02T03:31:15;10.57;;;1.90;;
18875;SDS011;9570;50.854;13.778;2023-02-02T03:33:41;2.83;;;1.40;;
18875;SDS011;9570;50.854;13.778;2023-02-02T03:36:06;9.07;;;1.63;;
18875;SDS011;9570;50.854;13.778;2023-02-02T03:38:32;6.93;;;1.83;;
18875;SDS011;9570;50.854;13.778;2023-02-02T03:40:58;8.37;;;2.13;;
18875;SDS011;9570;50.854;13.778;2023-02-02T03:43:23;5.43;;;2.17;;
18875;SDS011;9570;50.854;13.778;2023-02-02T03:45:56;4.73;;;1.80;;
18875;SDS011;9570;50.854;13.778;2023-02-02T03:48:23;7.63;;;1.73;;
18875;SDS011;9570;50.854;13.778;2023-02-02T03:50:49;8.03;;;1.83;;
18875;SDS011;9570;50.854;13.778;2023-02-02T03:53:14;8.90;;;1.83;;
18875;SDS011;9570;50.854;13.778;2023-02-02T03:55:40;6.17;;;1.93;;
18875;SDS011;9570;50.854;13.778;2023-02-02T03:58:05;7.20;;;1.73;;
18875;SDS011;9570;50.854;13.778;2023-02-02T04:00:31;5.50;;;1.70;;
18875;SDS011;9570;50.854;13.778;2023-02-02T04:02:56;5.30;;;1.70;;
18875;SDS011;9570;50.854;13.778;2023-02-02T04:05:22;7.03;;;1.50;;
18875;SDS011;9570;50.854;13.778;2023-02-02T04:07:48;10.90;;;1.90;;
18875;SDS011;9570;50.854;13.778;2023-02-02T04:10:13;6.80;;;1.60;;
18875;SDS011;9570;50.854;13.778;2023-02-02T04:12:39;6.97;;;1.80;;
18875;SDS011;9570;50.854;13.778;2023-02-02T04:15:04;11.43;;;1.83;;
18875;SDS011;9570;50.854;13.778;2023-02-02T04:17:31;7.43;;;2.00;;
18875;SDS011;9570;50.854;13.778;2023-02-02T04:19:56;9.67;;;1.70;;
18875;SDS011;9570;50.854;13.778;2023-02-02T04:22:22;8.97;;;2.10;;
18875;SDS011;9570;50.854;13.778;2023-02-02T04:24:49;8.87;;;1.70;;
18875;SDS011;9570;50.854;13.778;2023-02-02T04:27:14;6.43;;;1.80;;
18875;SDS011;9570;50.854;13.778;2023-02-02T04:29:40;9.57;;;1.70;;
18875;SDS011;9570;50.854;13.778;2023-02-02T04:32:05;6.73;;;1.63;;
18875;SDS011;9570;50.854;13.778;2023-02-02T04:34:30;6.30;;;1.57;;
18875;SDS011;9570;50.854;13.778;2023-02-02T04:36:56;9.47;;;2.20;;
18875;SDS011;9570;50.854;13.778;2023-02-02T04:39:21;5.47;;;1.87;;
18875;SDS011;9570;50.854;13.778;2023-02-02T04:41:47;9.47;;;2.20;;
18875;SDS011;9570;50.854;13.778;2023-02-02T04:44:13;9.00;;;2.03;;
18875;SDS011;9570;50.854;13.778;2023-02-02T04:46:40;7.97;;;1.63;;
18875;SDS011;9570;50.854;13.778;2023-02-02T04:49:07;10.00;;;2.07;;
18875;SDS011;9570;50.854;13.778;2023-02-02T04:51:34;11.50;;;2.10;;
18875;SDS011;9570;50.854;13.778;2023-02-02T04:53:59;15.20;;;2.10;;
18875;SDS011;9570;50.854;13.778;2023-02-02T04:56:25;7.17;;;1.70;;
18875;SDS011;9570;50.854;13.778;2023-02-02T04:58:52;8.10;;;1.77;;
18875;SDS011;9570;50.854;13.778;2023-02-02T05:01:18;8.33;;;2.27;;
18875;SDS011;9570;50.854;13.778;2023-02-02T05:03:44;14.90;;;2.33;;
18875;SDS011;9570;50.854;13.778;2023-02-02T05:06:10;6.77;;;1.70;;
18875;SDS011;9570;50.854;13.778;2023-02-02T05:08:36;8.57;;;2.20;;
18875;SDS011;9570;50.854;13.778;2023-02-02T05:11:21;11.20;;;2.07;;
18875;SDS011;9570;50.854;13.778;2023-02-02T05:13:48;7.53;;;1.80;;
18875;SDS011;9570;50.854;13.778;2023-02-02T05:16:15;6.17;;;1.80;;
18875;SDS011;9570;50.854;13.778;2023-02-02T05:18:41;6.00;;;1.93;;
18875;SDS011;9570;50.854;13.778;2023-02-02T05:21:07;11.17;;;2.07;;
18875;SDS011;9570;50.854;13.778;2023-02-02T05:23:33;10.17;;;2.57;;
18875;SDS011;9570;50.854;13.778;2023-02-02T05:25:58;9.87;;;2.03;;
18875;SDS011;9570;50.854;13.778;2023-02-02T05:28:24;7.13;;;2.00;;
18875;SDS011;9570;50.854;13.778;2023-02-02T05:30:50;7.93;;;2.13;;
18875;SDS011;9570;50.854;13.778;2023-02-02T05:33:15;9.93;;;2.10;;
18875;SDS011;9570;50.854;13.778;2023-02-02T05:35:43;9.90;;;1.90;;
18875;SDS011;9570;50.854;13.778;2023-02-02T05:38:10;11.60;;;2.20;;
18875;SDS011;9570;50.854;13.778;2023-02-02T05:40:35;12.93;;;2.37;;
18875;SDS011;9570;50.854;13.778;2023-02-02T05:43:00;7.17;;;1.97;;
18875;SDS011;9570;50.854;13.778;2023-02-02T05:45:26;5.63;;;2.30;;
18875;SDS011;9570;50.854;13.778;2023-02-02T05:47:54;15.33;;;2.00;;
18875;SDS011;9570;50.854;13.778;2023-02-02T05:50:21;10.97;;;2.77;;
18875;SDS011;9570;50.854;13.778;2023-02-02T05:52:46;8.63;;;2.50;;
18875;SDS011;9570;50.854;13.778;2023-02-02T05:55:12;7.27;;;1.90;;
18875;SDS011;9570;50.854;13.778;2023-02-02T05:57:38;9.67;;;2.20;;
18875;SDS011;9570;50.854;13.778;2023-02-02T06:00:03;7.57;;;2.00;;
18875;SDS011;9570;50.854;13.778;2023-02-02T06:02:29;8.10;;;1.90;;
18875;SDS011;9570;50.854;13.778;2023-02-02T06:04:55;9.13;;;2.27;;
18875;SDS011;9570;50.854;13.778;2023-02-02T06:07:20;8.63;;;1.80;;
18875;SDS011;9570;50.854;13.778;2023-02-02T06:09:46;14.80;;;2.27;;
18875;SDS011;9570;50.854;13.778;2023-02-02T06:12:11;9.07;;;2.20;;
18875;SDS011;9570;50.854;13.778;2023-02-02T06:14:37;13.70;;;2.27;;
18875;SDS011;9570;50.854;13.778;2023-02-02T06:17:02;6.10;;;1.60;;
18875;SDS011;9570;50.854;13.778;2023-02-02T06:19:28;9.93;;;1.80;;
18875;SDS011;9570;50.854;13.778;2023-02-02T06:21:53;6.90;;;1.73;;
18875;SDS011;9570;50.854;13.778;2023-02-02T06:24:19;9.07;;;2.10;;
18875;SDS011;9570;50.854;13.778;2023-02-02T06:26:44;13.17;;;2.20;;
18875;SDS011;9570;50.854;13.778;2023-02-02T06:29:10;11.73;;;2.03;;
18875;SDS011;9570;50.854;13.778;2023-02-02T06:31:37;8.60;;;1.57;;
18875;SDS011;9570;50.854;13.778;2023-02-02T06:34:02;10.37;;;2.07;;
18875;SDS011;9570;50.854;13.778;2023-02-02T06:36:28;7.03;;;2.23;;
18875;SDS011;9570;50.854;13.778;2023-02-02T06:38:54;9.97;;;2.40;;
18875;SDS011;9570;50.854;13.778;2023-02-02T06:41:21;8.67;;;1.97;;
18875;SDS011;9570;50.854;13.778;2023-02-02T06:43:47;8.43;;;2.00;;
18875;SDS011;9570;50.854;13.778;2023-02-02T06:46:13;8.40;;;1.93;;
18875;SDS011;9570;50.854;13.778;2023-02-02T06:48:39;11.03;;;2.33;;
18875;SDS011;9570;50.854;13.778;2023-02-02T06:51:05;13.60;;;2.17;;
18875;SDS011;9570;50.854;13.778;2023-02-02T06:53:31;11.63;;;2.37;;
18875;SDS011;9570;50.854;13.778;2023-02-02T06:55:57;9.67;;;2.00;;
18875;SDS011;9570;50.854;13.778;2023-02-02T06:58:27;7.47;;;1.67;;
18875;SDS011;9570;50.854;13.778;2023-02-02T07:00:53;9.30;;;2.10;;
18875;SDS011;9570;50.854;13.778;2023-02-02T07:03:19;14.13;;;2.50;;
18875;SDS011;9570;50.854;13.778;2023-02-02T07:05:47;12.83;;;2.73;;
18875;SDS011;9570;50.854;13.778;2023-02-02T07:08:13;7.17;;;1.93;;
18875;SDS011;9570;50.854;13.778;2023-02-02T07:10:38;18.00;;;2.57;;
18875;SDS011;9570;50.854;13.778;2023-02-02T07:13:04;8.10;;;2.13;;
18875;SDS011;9570;50.854;13.778;2023-02-02T07:15:31;10.73;;;1.87;;
18875;SDS011;9570;50.854;13.778;2023-02-02T07:17:57;8.77;;;2.17;;
18875;SDS011;9570;50.854;13.778;2023-02-02T07:20:22;7.23;;;2.10;;
18875;SDS011;9570;50.854;13.778;2023-02-02T07:22:48;12.57;;;2.37;;
18875;SDS011;9570;50.854;13.778;2023-02-02T07:25:14;10.20;;;2.33;;
18875;SDS011;9570;50.854;13.778;2023-02-02T07:27:39;10.40;;;2.60;;
18875;SDS011;9570;50.854;13.778;2023-02-02T07:30:05;12.27;;;2.30;;
18875;SDS011;9570;50.854;13.778;2023-02-02T07:32:30;15.23;;;2.57;;
18875;SDS011;9570;50.854;13.778;2023-02-02T07:34:56;14.37;;;2.73;;
18875;SDS011;9570;50.854;13.778;2023-02-02T07:37:21;8.00;;;2.07;;
18875;SDS011;9570;50.854;13.778;2023-02-02T07:39:47;12.07;;;2.63;;
18875;SDS011;9570;50.854;13.778;2023-02-02T07:42:12;12.43;;;2.50;;
18875;SDS011;9570;50.854;13.778;2023-02-02T07:44:38;9.73;;;2.53;;
18875;SDS011;9570;50.854;13.778;2023-02-02T07:47:04;7.97;;;2.03;;
18875;SDS011;9570;50.854;13.778;2023-02-02T07:49:29;14.87;;;2.53;;
18875;SDS011;9570;50.854;13.778;2023-02-02T07:51:55;10.10;;;2.03;;
18875;SDS011;9570;50.854;13.778;2023-02-02T07:54:21;7.60;;;2.00;;
18875;SDS011;9570;50.854;13.778;2023-02-02T07:56:46;8.07;;;1.90;;
18875;SDS011;9570;50.854;13.778;2023-02-02T07:59:12;12.90;;;2.20;;
18875;SDS011;9570;50.854;13.778;2023-02-02T08:01:37;12.57;;;2.20;;
18875;SDS011;9570;50.854;13.778;2023-02-02T08:04:03;10.70;;;2.37;;
18875;SDS011;9570;50.854;13.778;2023-02-02T08:06:29;8.50;;;2.03;;
18875;SDS011;9570;50.854;13.778;2023-02-02T08:09:00;10.63;;;2.20;;
18875;SDS011;9570;50.854;13.778;2023-02-02T08:11:27;12.50;;;2.50;;
18875;SDS011;9570;50.854;13.778;2023-02-02T08:13:55;8.73;;;2.47;;
18875;SDS011;9570;50.854;13.778;2023-02-02T08:16:22;10.47;;;2.13;;
18875;SDS011;9570;50.854;13.778;2023-02-02T08:18:49;7.10;;;1.80;;
18875;SDS011;9570;50.854;13.778;2023-02-02T08:21:15;8.13;;;1.77;;
18875;SDS011;9570;50.854;13.778;2023-02-02T08:23:41;7.00;;;2.27;;
18875;SDS011;9570;50.854;13.778;2023-02-02T08:26:11;12.80;;;2.40;;
18875;SDS011;9570;50.854;13.778;2023-02-02T08:28:37;10.83;;;2.33;;
18875;SDS011;9570;50.854;13.778;2023-02-02T08:31:10;12.10;;;2.37;;
18875;SDS011;9570;50.854;13.778;2023-02-02T08:33:41;15.80;;;2.13;;
18875;SDS011;9570;50.854;13.778;2023-02-02T08:36:14;7.40;;;2.00;;
18875;SDS011;9570;50.854;13.778;2023-02-02T08:38:41;9.00;;;2.03;;
18875;SDS011;9570;50.854;13.778;2023-02-02T08:41:07;14.13;;;3.03;;
18875;SDS011;9570;50.854;13.778;2023-02-02T08:43:34;6.37;;;1.90;;
18875;SDS011;9570;50.854;13.778;2023-02-02T08:46:00;8.10;;;1.80;;
18875;SDS011;9570;50.854;13.778;2023-02-02T08:48:26;13.03;;;2.27;;
18875;SDS011;9570;50.854;13.778;2023-02-02T08:50:55;11.63;;;2.20;;
18875;SDS011;9570;50.854;13.778;2023-02-02T08:53:21;21.67;;;2.60;;
18875;SDS011;9570;50.854;13.778;2023-02-02T08:55:47;6.73;;;2.10;;
18875;SDS011;9570;50.854;13.778;2023-02-02T08:58:21;10.13;;;2.63;;
18875;SDS011;9570;50.854;13.778;2023-02-02T09:00:46;13.13;;;2.20;;
18875;SDS011;9570;50.854;13.778;2023-02-02T09:03:12;8.87;;;2.10;;
18875;SDS011;9570;50.854;13.778;2023-02-02T09:05:37;10.43;;;2.40;;
18875;SDS011;9570;50.854;13.778;2023-02-02T09:08:03;7.80;;;2.13;;
18875;SDS011;9570;50.854;13.778;2023-02-02T09:10:28;13.53;;;2.37;;
18875;SDS011;9570;50.854;13.778;2023-02-02T09:12:55;11.67;;;2.07;;
18875;SDS011;9570;50.854;13.778;2023-02-02T09:15:21;10.67;;;2.10;;
18875;SDS011;9570;50.854;13.778;2023-02-02T09:17:47;8.77;;;2.17;;
18875;SDS011;9570;50.854;13.778;2023-02-02T09:20:12;10.20;;;2.10;;
18875;SDS011;9570;50.854;13.778;2023-02-02T09:22:38;13.27;;;2.33;;
18875;SDS011;9570;50.854;13.778;2023-02-02T09:25:04;6.07;;;2.30;;
18875;SDS011;9570;50.854;13.778;2023-02-02T09:27:29;12.97;;;2.53;;
18875;SDS011;9570;50.854;13.778;2023-02-02T09:29:55;8.40;;;1.90;;
18875;SDS011;9570;50.854;13.778;2023-02-02T09:32:20;7.10;;;2.07;;
18875;SDS011;9570;50.854;13.778;2023-02-02T09:34:46;10.30;;;2.53;;
18875;SDS011;9570;50.854;13.778;2023-02-02T09:37:11;11.37;;;2.10;;
18875;SDS011;9570;50.854;13.778;2023-02-02T09:39:37;14.10;;;2.57;;
18875;SDS011;9570;50.854;13.778;2023-02-02T09:42:18;12.53;;;2.30;;
18875;SDS011;9570;50.854;13.778;2023-02-02T09:47:52;9.37;;;2.13;;
18875;SDS011;9570;50.854;13.778;2023-02-02T09:55:49;12.67;;;2.53;;
18875;SDS011;9570;50.854;13.778;2023-02-02T09:58:27;12.20;;;2.30;;
18875;SDS011;9570;50.854;13.778;2023-02-02T10:03:56;13.17;;;2.57;;
18875;SDS011;9570;50.854;13.778;2023-02-02T10:06:36;11.77;;;2.57;;
18875;SDS011;9570;50.854;13.778;2023-02-02T10:11:36;12.47;;;2.80;;
18875;SDS011;9570;50.854;13.778;2023-02-02T10:14:14;9.00;;;2.40;;
18875;SDS011;9570;50.854;13.778;2023-02-02T10:16:47;11.80;;;2.37;;
18875;SDS011;9570;50.854;13.778;2023-02-02T10:19:16;11.30;;;2.70;;
18875;SDS011;9570;50.854;13.778;2023-02-02T10:24:26;8.43;;;2.63;;
18875;SDS011;9570;50.854;13.778;2023-02-02T10:26:57;11.60;;;2.80;;
18875;SDS011;9570;50.854;13.778;2023-02-02T10:29:52;12.27;;;2.80;;
18875;SDS011;9570;50.854;13.778;2023-02-02T10:32:27;13.60;;;2.63;;
18875;SDS011;9570;50.854;13.778;2023-02-02T10:35:06;8.43;;;2.70;;
18875;SDS011;9570;50.854;13.778;2023-02-02T10:37:55;13.93;;;2.90;;
18875;SDS011;9570;50.854;13.778;2023-02-02T10:40:30;9.40;;;2.60;;
18875;SDS011;9570;50.854;13.778;2023-02-02T10:46:19;12.00;;;2.67;;
18875;SDS011;9570;50.854;13.778;2023-02-02T10:48:55;15.60;;;2.50;;
18875;SDS011;9570;50.854;13.778;2023-02-02T10:51:34;8.37;;;2.70;;
18875;SDS011;9570;50.854;13.778;2023-02-02T10:54:01;12.27;;;2.60;;
18875;SDS011;9570;50.854;13.778;2023-02-02T10:56:34;9.07;;;2.50;;
18875;SDS011;9570;50.854;13.778;2023-02-02T10:59:09;13.50;;;3.23;;
18875;SDS011;9570;50.854;13.778;2023-02-02T11:01:39;10.10;;;2.73;;
18875;SDS011;9570;50.854;13.778;2023-02-02T11:04:05;11.03;;;3.33;;
18875;SDS011;9570;50.854;13.778;2023-02-02T11:06:51;20.63;;;3.70;;
18875;SDS011;9570;50.854;13.778;2023-02-02T11:09:18;9.80;;;2.67;;
18875;SDS011;9570;50.854;13.778;2023-02-02T11:15:04;15.17;;;2.83;;
18875;SDS011;9570;50.854;13.778;2023-02-02T11:17:32;14.00;;;3.17;;
18875;SDS011;9570;50.854;13.778;2023-02-02T11:19:58;13.57;;;2.60;;
18875;SDS011;9570;50.854;13.778;2023-02-02T11:22:29;8.00;;;2.20;;
18875;SDS011;9570;50.854;13.778;2023-02-02T11:25:01;11.00;;;2.87;;
18875;SDS011;9570;50.854;13.778;2023-02-02T11:27:32;13.87;;;2.83;;
18875;SDS011;9570;50.854;13.778;2023-02-02T11:35:55;13.27;;;2.97;;
18875;SDS011;9570;50.854;13.778;2023-02-02T11:38:24;12.50;;;3.83;;
18875;SDS011;9570;50.854;13.778;2023-02-02T11:40:58;7.77;;;2.73;;
18875;SDS011;9570;50.854;13.778;2023-02-02T11:46:21;10.53;;;2.70;;
18875;SDS011;9570;50.854;13.778;2023-02-02T11:48:55;9.17;;;3.03;;
18875;SDS011;9570;50.854;13.778;2023-02-02T11:51:29;11.53;;;3.33;;
18875;SDS011;9570;50.854;13.778;2023-02-02T11:54:38;8.93;;;3.07;;
18875;SDS011;9570;50.854;13.778;2023-02-02T11:56:50;8.93;;;2.73;;
18875;SDS011;9570;50.854;13.778;2023-02-02T11:59:28;13.27;;;3.67;;
18875;SDS011;9570;50.854;13.778;2023-02-02T12:02:12;9.57;;;2.63;;
18875;SDS011;9570;50.854;13.778;2023-02-02T12:04:54;6.83;;;2.50;;
18875;SDS011;9570;50.854;13.778;2023-02-02T12:07:40;5.73;;;1.97;;
18875;SDS011;9570;50.854;13.778;2023-02-02T12:10:18;4.00;;;1.70;;
18875;SDS011;9570;50.854;13.778;2023-02-02T12:21:17;5.97;;;2.43;;
18875;SDS011;9570;50.854;13.778;2023-02-02T12:24:03;6.43;;;2.13;;
18875;SDS011;9570;50.854;13.778;2023-02-02T12:33:12;4.87;;;2.60;;
18875;SDS011;9570;50.854;13.778;2023-02-02T12:35:52;4.73;;;2.20;;
18875;SDS011;9570;50.854;13.778;2023-02-02T12:38:49;7.33;;;2.60;;
18875;SDS011;9570;50.854;13.778;2023-02-02T12:41:29;10.90;;;3.17;;
18875;SDS011;9570;50.854;13.778;2023-02-02T12:49:39;10.17;;;2.87;;
18875;SDS011;9570;50.854;13.778;2023-02-02T12:52:35;7.13;;;2.27;;
18875;SDS011;9570;50.854;13.778;2023-02-02T12:55:24;10.57;;;2.80;;
18875;SDS011;9570;50.854;13.778;2023-02-02T12:58:10;16.93;;;2.63;;
18875;SDS011;9570;50.854;13.778;2023-02-02T13:01:02;13.03;;;2.80;;
18875;SDS011;9570;50.854;13.778;2023-02-02T13:09:16;10.80;;;2.33;;
18875;SDS011;9570;50.854;13.778;2023-02-02T13:11:51;6.17;;;2.30;;
18875;SDS011;9570;50.854;13.778;2023-02-02T13:14:31;11.00;;;2.33;;
18875;SDS011;9570;50.854;13.778;2023-02-02T13:17:06;7.13;;;2.27;;
18875;SDS011;9570;50.854;13.778;2023-02-02T13:19:54;11.03;;;2.40;;
18875;SDS011;9570;50.854;13.778;2023-02-02T13:22:33;4.47;;;2.33;;
18875;SDS011;9570;50.854;13.778;2023-02-02T13:25:04;4.07;;;2.10;;
18875;SDS011;9570;50.854;13.778;2023-02-02T13:27:34;5.57;;;2.30;;
18875;SDS011;9570;50.854;13.778;2023-02-02T13:32:47;11.20;;;2.67;;
18875;SDS011;9570;50.854;13.778;2023-02-02T13:35:22;6.13;;;2.83;;
18875;SDS011;9570;50.854;13.778;2023-02-02T13:40:49;5.87;;;2.57;;
18875;SDS011;9570;50.854;13.778;2023-02-02T13:43:21;9.23;;;2.87;;
18875;SDS011;9570;50.854;13.778;2023-02-02T13:46:10;6.93;;;3.17;;
18875;SDS011;9570;50.854;13.778;2023-02-02T13:51:44;11.03;;;2.90;;
18875;SDS011;9570;50.854;13.778;2023-02-02T13:54:36;7.33;;;2.43;;
18875;SDS011;9570;50.854;13.778;2023-02-02T14:00:19;4.07;;;2.20;;
18875;SDS011;9570;50.854;13.778;2023-02-02T14:02:49;7.17;;;2.10;;
18875;SDS011;9570;50.854;13.778;2023-02-02T14:07:52;4.47;;;1.93;;
18875;SDS011;9570;50.854;13.778;2023-02-02T14:10:38;4.10;;;1.40;;
18875;SDS011;9570;50.854;13.778;2023-02-02T14:13:14;3.23;;;1.40;;
18875;SDS011;9570;50.854;13.778;2023-02-02T14:16:03;7.97;;;2.30;;
18875;SDS011;9570;50.854;13.778;2023-02-02T14:23:56;5.37;;;2.17;;
18875;SDS011;9570;50.854;13.778;2023-02-02T14:26:46;5.93;;;2.40;;
18875;SDS011;9570;50.854;13.778;2023-02-02T14:34:45;8.40;;;2.47;;
18875;SDS011;9570;50.854;13.778;2023-02-02T14:37:27;5.73;;;2.53;;
18875;SDS011;9570;50.854;13.778;2023-02-02T14:45:37;6.17;;;2.47;;
18875;SDS011;9570;50.854;13.778;2023-02-02T14:50:42;5.47;;;2.60;;
18875;SDS011;9570;50.854;13.778;2023-02-02T14:53:18;7.93;;;2.53;;
18875;SDS011;9570;50.854;13.778;2023-02-02T14:56:21;5.37;;;2.53;;
18875;SDS011;9570;50.854;13.778;2023-02-02T14:58:59;3.27;;;2.23;;
18875;SDS011;9570;50.854;13.778;2023-02-02T15:01:32;4.67;;;2.73;;
18875;SDS011;9570;50.854;13.778;2023-02-02T15:20:07;6.97;;;2.63;;
18875;SDS011;9570;50.854;13.778;2023-02-02T15:25:50;4.53;;;2.60;;
18875;SDS011;9570;50.854;13.778;2023-02-02T15:28:19;7.77;;;2.30;;
18875;SDS011;9570;50.854;13.778;2023-02-02T15:31:13;4.63;;;2.27;;
18875;SDS011;9570;50.854;13.778;2023-02-02T15:33:45;6.17;;;2.10;;
18875;SDS011;9570;50.854;13.778;2023-02-02T15:36:27;5.07;;;2.30;;
18875;SDS011;9570;50.854;13.778;2023-02-02T15:39:03;10.60;;;3.00;;
18875;SDS011;9570;50.854;13.778;2023-02-02T15:41:42;7.47;;;2.77;;
18875;SDS011;9570;50.854;13.778;2023-02-02T15:46:44;7.87;;;2.47;;
18875;SDS011;9570;50.854;13.778;2023-02-02T15:51:46;7.17;;;2.70;;
18875;SDS011;9570;50.854;13.778;2023-02-02T15:54:27;8.93;;;2.93;;
18875;SDS011;9570;50.854;13.778;2023-02-02T15:56:56;7.53;;;2.90;;
18875;SDS011;9570;50.854;13.778;2023-02-02T15:59:25;11.47;;;2.70;;
18875;SDS011;9570;50.854;13.778;2023-02-02T16:07:01;7.77;;;2.53;;
18875;SDS011;9570;50.854;13.778;2023-02-02T16:09:30;12.70;;;3.90;;
18875;SDS011;9570;50.854;13.778;2023-02-02T16:11:58;8.27;;;3.37;;
18875;SDS011;9570;50.854;13.778;2023-02-02T16:14:25;6.47;;;3.00;;
18875;SDS011;9570;50.854;13.778;2023-02-02T16:16:51;5.50;;;3.03;;
18875;SDS011;9570;50.854;13.778;2023-02-02T16:19:20;5.30;;;2.80;;
18875;SDS011;9570;50.854;13.778;2023-02-02T16:21:49;6.37;;;3.30;;
18875;SDS011;9570;50.854;13.778;2023-02-02T16:24:26;5.47;;;2.67;;
18875;SDS011;9570;50.854;13.778;2023-02-02T16:26:53;6.67;;;2.90;;
18875;SDS011;9570;50.854;13.778;2023-02-02T16:29:21;6.37;;;2.40;;
18875;SDS011;9570;50.854;13.778;2023-02-02T16:31:48;4.93;;;2.20;;
18875;SDS011;9570;50.854;13.778;2023-02-02T16:34:17;5.07;;;2.27;;
18875;SDS011;9570;50.854;13.778;2023-02-02T16:37:13;4.83;;;2.57;;
18875;SDS011;9570;50.854;13.778;2023-02-02T16:39:40;5.33;;;2.30;;
18875;SDS011;9570;50.854;13.778;2023-02-02T16:42:06;4.67;;;2.60;;
18875;SDS011;9570;50.854;13.778;2023-02-02T16:44:45;5.37;;;2.57;;
18875;SDS011;9570;50.854;13.778;2023-02-02T16:49:50;3.57;;;2.10;;
18875;SDS011;9570;50.854;13.778;2023-02-02T16:52:18;4.07;;;2.47;;
18875;SDS011;9570;50.854;13.778;2023-02-02T16:54:52;8.80;;;2.67;;
18875;SDS011;9570;50.854;13.778;2023-02-02T16:57:26;4.73;;;2.10;;
18875;SDS011;9570;50.854;13.778;2023-02-02T16:59:55;5.77;;;2.90;;
18875;SDS011;9570;50.854;13.778;2023-02-02T17:02:30;5.60;;;2.80;;
18875;SDS011;9570;50.854;13.778;2023-02-02T17:05:03;7.43;;;3.27;;
18875;SDS011;9570;50.854;13.778;2023-02-02T17:07:33;4.63;;;2.80;;
18875;SDS011;9570;50.854;13.778;2023-02-02T17:10:18;8.20;;;2.93;;
18875;SDS011;9570;50.854;13.778;2023-02-02T17:12:47;8.37;;;2.83;;
18875;SDS011;9570;50.854;13.778;2023-02-02T17:17:42;8.30;;;3.03;;
18875;SDS011;9570;50.854;13.778;2023-02-02T17:20:12;7.93;;;2.73;;
18875;SDS011;9570;50.854;13.778;2023-02-02T17:22:42;10.60;;;3.47;;